Bookmark and Share
Track history (hours):
 

Guenther Schulte

Last reported at 2014-Apr-13 19:17 UTC. Time now 2014-Apr-18 13:21 UTC.
Position S 38°59' E 147°32'.

Length 231 m; draft 10.4 m.

Type: Ship (hazmat cat C). MMSI: 477728800.

NotesDate/timePositionNaut miles runAvg speedWind from/ knotsBaromVisibWave heightAir tempDewpointWater temp
2014-Apr-13 19:17S 38°59' E 147°32'1216.1
2014-Apr-13 18:32S 39°03' E 147°17'1616.4
2014-Apr-13 17:33S 39°09' E 146°58'1716.8
2014-Apr-13 16:31S 39°15' E 146°37'1616.5
2014-Apr-13 15:32S 39°16' E 146°16'1515.5
2014-Apr-13 14:33S 39°11' E 145°58'1716.0
2014-Apr-13 13:30S 39°01' E 145°39'5912.0
2014-Apr-13 08:33S 38°19' E 144°47'1110.7
2014-Apr-13 07:33S 38°10' E 144°55'1515.2
2014-Apr-13 06:33S 37°55' E 144°56'6 6.2
2014-Apr-13 05:34S 37°49' E 144°55'0 0.0
2014-Apr-13 04:29S 37°49' E 144°55'0 0.0
2014-Apr-13 03:29S 37°49' E 144°55'0 0.0
2014-Apr-13 02:29S 37°49' E 144°55'0 0.0
2014-Apr-13 01:29S 37°49' E 144°55'0 0.0
2014-Apr-13 00:29S 37°49' E 144°55'0 0.0
2014-Apr-12 23:29S 37°49' E 144°55'0 0.0
2014-Apr-12 22:29S 37°49' E 144°55'0 0.0
2014-Apr-12 21:29S 37°49' E 144°55'0 0.0
2014-Apr-12 20:29S 37°49' E 144°55'0 0.0
2014-Apr-12 19:29S 37°49' E 144°55'0 0.0
2014-Apr-12 18:29S 37°49' E 144°55'0 0.0
2014-Apr-12 17:29S 37°49' E 144°55'0 0.0
2014-Apr-12 16:29S 37°49' E 144°55'0 0.0
2014-Apr-12 15:29S 37°49' E 144°55'0 0.0
2014-Apr-12 14:29S 37°49' E 144°55'0 0.0
2014-Apr-12 13:29S 37°49' E 144°55'0 0.0
2014-Apr-12 12:29S 37°49' E 144°55'0 0.0
2014-Apr-12 11:29S 37°49' E 144°55'0 0.0
2014-Apr-12 10:29S 37°49' E 144°55'0 0.0
2014-Apr-12 09:29S 37°49' E 144°55'0 0.0
2014-Apr-12 08:29S 37°49' E 144°55'0 0.0
2014-Apr-12 07:17S 37°49' E 144°55'0 0.0
2014-Apr-12 06:29S 37°49' E 144°55'0 0.0
2014-Apr-12 05:29S 37°49' E 144°55'0 0.0
2014-Apr-12 04:33S 37°49' E 144°55'4 4.3
2014-Apr-12 03:33S 37°53' E 144°56'9 8.6
2014-Apr-12 02:33S 38°02' E 144°55'1817.6
2014-Apr-12 01:33S 38°19' E 144°55'7210.2
2014-Apr-11 18:28S 39°06' E 146°05'3115.8
2014-Apr-11 16:28S 39°05' E 146°45'1616.6
2014-Apr-11 15:29S 39°00' E 147°05'  
2014-Apr-08 03:33S 36°12' E 174°57'1717.2
2014-Apr-08 02:33S 36°29' E 175°00'1515.2
2014-Apr-08 01:33S 36°43' E 174°52'3 2.6
2014-Apr-08 00:33S 36°45' E 174°49'6 5.9
2014-Apr-07 23:33S 36°50' E 174°47'0 0.1
2014-Apr-07 22:32S 36°51' E 174°47'0 0.0
2014-Apr-07 21:20S 36°51' E 174°47'0 0.0
2014-Apr-07 19:14S 36°51' E 174°47'0 0.0
2014-Apr-07 16:08S 36°51' E 174°47'0 0.0
2014-Apr-07 11:03S 36°51' E 174°47'0 0.0
2014-Apr-07 10:33S 36°51' E 174°47'1 1.2
2014-Apr-07 09:33S 36°50' E 174°48'9 9.2
2014-Apr-07 08:33S 36°42' E 174°53'9 8.7
2014-Apr-07 07:34S 36°35' E 174°59'10 9.8
2014-Apr-07 06:34S 36°29' E 175°09'1010.0
2014-Apr-07 05:33S 36°23' E 175°19'  

Dump ship's entire track history

sailing weather and tide predictions

Guenther Schulte — VRGK8 — position and weather